sensor_id;sensor_type;location;lat;lon;timestamp;P1;durP1;ratioP1;P2;durP2;ratioP2
71914;SDS011;60387;49.994;14.660;2022-09-09T00:04:00;5.50;;;1.60;;
71914;SDS011;60387;49.994;14.660;2022-09-09T00:09:45;4.40;;;1.50;;
71914;SDS011;60387;49.994;14.660;2022-09-09T00:15:07;6.45;;;1.70;;
71914;SDS011;60387;49.994;14.660;2022-09-09T00:20:36;4.57;;;1.40;;
71914;SDS011;60387;49.994;14.660;2022-09-09T00:29:10;5.68;;;1.50;;
71914;SDS011;60387;49.994;14.660;2022-09-09T00:31:46;5.75;;;1.77;;
71914;SDS011;60387;49.994;14.660;2022-09-09T00:34:21;4.63;;;1.67;;
71914;SDS011;60387;49.994;14.660;2022-09-09T00:36:57;5.03;;;1.57;;
71914;SDS011;60387;49.994;14.660;2022-09-09T00:39:32;4.63;;;1.60;;
71914;SDS011;60387;49.994;14.660;2022-09-09T00:48:07;4.70;;;1.50;;
71914;SDS011;60387;49.994;14.660;2022-09-09T00:58:55;6.03;;;1.70;;
71914;SDS011;60387;49.994;14.660;2022-09-09T01:01:38;4.07;;;1.60;;
71914;SDS011;60387;49.994;14.660;2022-09-09T01:04:13;5.73;;;1.93;;
71914;SDS011;60387;49.994;14.660;2022-09-09T01:06:55;5.78;;;1.70;;
71914;SDS011;60387;49.994;14.660;2022-09-09T01:09:42;4.32;;;1.63;;
71914;SDS011;60387;49.994;14.660;2022-09-09T01:15:21;4.77;;;2.00;;
71914;SDS011;60387;49.994;14.660;2022-09-09T01:18:04;4.50;;;1.58;;
71914;SDS011;60387;49.994;14.660;2022-09-09T01:20:50;4.18;;;1.70;;
71914;SDS011;60387;49.994;14.660;2022-09-09T01:26:22;4.88;;;1.90;;
71914;SDS011;60387;49.994;14.660;2022-09-09T01:29:00;4.30;;;1.90;;
71914;SDS011;60387;49.994;14.660;2022-09-09T01:31:41;5.95;;;1.90;;
71914;SDS011;60387;49.994;14.660;2022-09-09T01:34:27;7.00;;;2.00;;
71914;SDS011;60387;49.994;14.660;2022-09-09T01:37:04;4.55;;;2.13;;
71914;SDS011;60387;49.994;14.660;2022-09-09T01:39:40;4.85;;;1.70;;
71914;SDS011;60387;49.994;14.660;2022-09-09T01:42:16;6.07;;;1.70;;
71914;SDS011;60387;49.994;14.660;2022-09-09T01:44:50;5.97;;;2.50;;
71914;SDS011;60387;49.994;14.660;2022-09-09T01:47:23;4.70;;;1.90;;
71914;SDS011;60387;49.994;14.660;2022-09-09T01:49:57;5.28;;;1.95;;
71914;SDS011;60387;49.994;14.660;2022-09-09T01:52:32;5.43;;;2.00;;
71914;SDS011;60387;49.994;14.660;2022-09-09T01:55:08;5.25;;;2.15;;
71914;SDS011;60387;49.994;14.660;2022-09-09T01:57:50;4.13;;;1.83;;
71914;SDS011;60387;49.994;14.660;2022-09-09T02:00:28;4.93;;;1.73;;
71914;SDS011;60387;49.994;14.660;2022-09-09T02:03:11;5.10;;;2.00;;
71914;SDS011;60387;49.994;14.660;2022-09-09T02:08:53;5.65;;;2.00;;
71914;SDS011;60387;49.994;14.660;2022-09-09T02:11:29;5.78;;;1.98;;
71914;SDS011;60387;49.994;14.660;2022-09-09T02:14:08;5.20;;;2.00;;
71914;SDS011;60387;49.994;14.660;2022-09-09T02:16:52;4.97;;;1.80;;
71914;SDS011;60387;49.994;14.660;2022-09-09T02:19:34;6.30;;;2.33;;
71914;SDS011;60387;49.994;14.660;2022-09-09T02:22:10;5.72;;;2.05;;
71914;SDS011;60387;49.994;14.660;2022-09-09T02:24:44;6.07;;;2.10;;
71914;SDS011;60387;49.994;14.660;2022-09-09T02:27:17;5.70;;;1.93;;
71914;SDS011;60387;49.994;14.660;2022-09-09T02:29:51;7.00;;;2.22;;
71914;SDS011;60387;49.994;14.660;2022-09-09T02:32:26;6.32;;;2.25;;
71914;SDS011;60387;49.994;14.660;2022-09-09T02:35:21;5.85;;;2.13;;
71914;SDS011;60387;49.994;14.660;2022-09-09T02:37:58;4.93;;;1.92;;
71914;SDS011;60387;49.994;14.660;2022-09-09T02:40:36;6.57;;;1.83;;
71914;SDS011;60387;49.994;14.660;2022-09-09T02:43:10;5.40;;;2.23;;
71914;SDS011;60387;49.994;14.660;2022-09-09T02:45:47;5.47;;;2.20;;
71914;SDS011;60387;49.994;14.660;2022-09-09T02:48:30;6.18;;;2.05;;
71914;SDS011;60387;49.994;14.660;2022-09-09T02:53:58;6.95;;;2.50;;
71914;SDS011;60387;49.994;14.660;2022-09-09T02:56:42;5.93;;;2.17;;
71914;SDS011;60387;49.994;14.660;2022-09-09T02:59:21;8.25;;;2.20;;
71914;SDS011;60387;49.994;14.660;2022-09-09T03:01:57;5.15;;;2.17;;
71914;SDS011;60387;49.994;14.660;2022-09-09T03:04:30;5.67;;;2.20;;
71914;SDS011;60387;49.994;14.660;2022-09-09T03:07:04;5.23;;;2.37;;
71914;SDS011;60387;49.994;14.660;2022-09-09T03:09:37;6.47;;;2.37;;
71914;SDS011;60387;49.994;14.660;2022-09-09T03:12:10;6.17;;;2.60;;
71914;SDS011;60387;49.994;14.660;2022-09-09T03:14:44;5.70;;;2.23;;
71914;SDS011;60387;49.994;14.660;2022-09-09T03:17:17;8.07;;;2.10;;
71914;SDS011;60387;49.994;14.660;2022-09-09T03:19:50;5.37;;;2.20;;
71914;SDS011;60387;49.994;14.660;2022-09-09T03:22:24;7.13;;;2.20;;
71914;SDS011;60387;49.994;14.660;2022-09-09T03:24:57;5.73;;;2.60;;
71914;SDS011;60387;49.994;14.660;2022-09-09T03:27:31;6.37;;;2.07;;
71914;SDS011;60387;49.994;14.660;2022-09-09T03:30:04;5.97;;;2.38;;
71914;SDS011;60387;49.994;14.660;2022-09-09T03:32:38;5.97;;;2.20;;
71914;SDS011;60387;49.994;14.660;2022-09-09T03:35:11;5.20;;;2.10;;
71914;SDS011;60387;49.994;14.660;2022-09-09T03:37:44;7.07;;;3.03;;
71914;SDS011;60387;49.994;14.660;2022-09-09T03:40:18;5.60;;;2.17;;
71914;SDS011;60387;49.994;14.660;2022-09-09T03:42:51;6.20;;;2.40;;
71914;SDS011;60387;49.994;14.660;2022-09-09T03:45:24;5.43;;;2.50;;
71914;SDS011;60387;49.994;14.660;2022-09-09T03:47:58;5.83;;;2.40;;
71914;SDS011;60387;49.994;14.660;2022-09-09T03:50:34;5.47;;;2.38;;
71914;SDS011;60387;49.994;14.660;2022-09-09T03:53:07;6.80;;;2.53;;
71914;SDS011;60387;49.994;14.660;2022-09-09T03:55:50;5.10;;;2.03;;
71914;SDS011;60387;49.994;14.660;2022-09-09T03:58:25;6.43;;;2.33;;
71914;SDS011;60387;49.994;14.660;2022-09-09T04:01:00;5.40;;;2.28;;
71914;SDS011;60387;49.994;14.660;2022-09-09T04:03:35;8.40;;;2.70;;
71914;SDS011;60387;49.994;14.660;2022-09-09T04:06:09;6.10;;;2.57;;
71914;SDS011;60387;49.994;14.660;2022-09-09T04:08:44;4.90;;;2.15;;
71914;SDS011;60387;49.994;14.660;2022-09-09T04:11:17;5.33;;;2.30;;
71914;SDS011;60387;49.994;14.660;2022-09-09T04:13:50;6.27;;;2.40;;
71914;SDS011;60387;49.994;14.660;2022-09-09T04:16:23;5.93;;;2.37;;
71914;SDS011;60387;49.994;14.660;2022-09-09T04:18:57;5.00;;;2.20;;
71914;SDS011;60387;49.994;14.660;2022-09-09T04:21:30;6.60;;;2.40;;
71914;SDS011;60387;49.994;14.660;2022-09-09T04:24:04;5.90;;;2.37;;
71914;SDS011;60387;49.994;14.660;2022-09-09T04:26:37;5.47;;;2.20;;
71914;SDS011;60387;49.994;14.660;2022-09-09T04:29:11;6.72;;;2.30;;
71914;SDS011;60387;49.994;14.660;2022-09-09T04:31:44;6.70;;;2.23;;
71914;SDS011;60387;49.994;14.660;2022-09-09T04:34:17;6.00;;;2.40;;
71914;SDS011;60387;49.994;14.660;2022-09-09T04:36:51;5.67;;;2.40;;
71914;SDS011;60387;49.994;14.660;2022-09-09T04:39:24;7.63;;;2.33;;
71914;SDS011;60387;49.994;14.660;2022-09-09T04:41:57;5.20;;;2.03;;
71914;SDS011;60387;49.994;14.660;2022-09-09T04:44:30;5.47;;;2.43;;
71914;SDS011;60387;49.994;14.660;2022-09-09T04:47:04;8.83;;;2.30;;
71914;SDS011;60387;49.994;14.660;2022-09-09T04:49:37;6.25;;;2.17;;
71914;SDS011;60387;49.994;14.660;2022-09-09T04:52:10;5.20;;;2.30;;
71914;SDS011;60387;49.994;14.660;2022-09-09T04:54:44;6.10;;;2.70;;
71914;SDS011;60387;49.994;14.660;2022-09-09T04:57:17;6.97;;;2.17;;
71914;SDS011;60387;49.994;14.660;2022-09-09T04:59:50;5.30;;;2.30;;
71914;SDS011;60387;49.994;14.660;2022-09-09T05:02:23;5.50;;;2.40;;
71914;SDS011;60387;49.994;14.660;2022-09-09T05:04:57;5.87;;;2.63;;
71914;SDS011;60387;49.994;14.660;2022-09-09T05:07:30;6.87;;;2.30;;
71914;SDS011;60387;49.994;14.660;2022-09-09T05:10:03;4.90;;;2.37;;
71914;SDS011;60387;49.994;14.660;2022-09-09T05:12:37;6.27;;;2.20;;
71914;SDS011;60387;49.994;14.660;2022-09-09T05:15:10;4.90;;;2.38;;
71914;SDS011;60387;49.994;14.660;2022-09-09T05:17:43;4.63;;;2.08;;
71914;SDS011;60387;49.994;14.660;2022-09-09T05:20:17;4.60;;;2.10;;
71914;SDS011;60387;49.994;14.660;2022-09-09T05:22:52;5.87;;;2.03;;
71914;SDS011;60387;49.994;14.660;2022-09-09T05:25:26;4.43;;;1.90;;
71914;SDS011;60387;49.994;14.660;2022-09-09T05:28:00;4.27;;;1.40;;
71914;SDS011;60387;49.994;14.660;2022-09-09T05:30:33;5.23;;;1.60;;
71914;SDS011;60387;49.994;14.660;2022-09-09T05:33:07;4.47;;;1.50;;
71914;SDS011;60387;49.994;14.660;2022-09-09T05:35:40;4.33;;;1.60;;
71914;SDS011;60387;49.994;14.660;2022-09-09T05:38:13;4.90;;;1.83;;
71914;SDS011;60387;49.994;14.660;2022-09-09T05:40:47;4.50;;;1.47;;
71914;SDS011;60387;49.994;14.660;2022-09-09T05:43:20;5.03;;;1.63;;
71914;SDS011;60387;49.994;14.660;2022-09-09T05:46:04;5.30;;;1.87;;
71914;SDS011;60387;49.994;14.660;2022-09-09T05:48:42;6.18;;;1.88;;
71914;SDS011;60387;49.994;14.660;2022-09-09T05:51:18;4.27;;;1.60;;
71914;SDS011;60387;49.994;14.660;2022-09-09T05:53:53;4.38;;;1.80;;
71914;SDS011;60387;49.994;14.660;2022-09-09T05:56:27;5.60;;;1.97;;
71914;SDS011;60387;49.994;14.660;2022-09-09T05:59:01;5.47;;;1.50;;
71914;SDS011;60387;49.994;14.660;2022-09-09T06:01:35;5.43;;;1.63;;
71914;SDS011;60387;49.994;14.660;2022-09-09T06:04:09;4.13;;;1.70;;
71914;SDS011;60387;49.994;14.660;2022-09-09T06:06:42;4.47;;;1.93;;
71914;SDS011;60387;49.994;14.660;2022-09-09T06:09:15;5.67;;;1.53;;
71914;SDS011;60387;49.994;14.660;2022-09-09T06:11:49;4.77;;;1.57;;
71914;SDS011;60387;49.994;14.660;2022-09-09T06:14:22;4.47;;;1.60;;
71914;SDS011;60387;49.994;14.660;2022-09-09T06:16:55;3.77;;;1.77;;
71914;SDS011;60387;49.994;14.660;2022-09-09T06:19:28;4.13;;;1.70;;
71914;SDS011;60387;49.994;14.660;2022-09-09T06:22:02;5.07;;;1.50;;
71914;SDS011;60387;49.994;14.660;2022-09-09T06:24:35;5.43;;;2.57;;
71914;SDS011;60387;49.994;14.660;2022-09-09T06:27:08;4.50;;;1.77;;
71914;SDS011;60387;49.994;14.660;2022-09-09T06:29:42;5.03;;;1.50;;
71914;SDS011;60387;49.994;14.660;2022-09-09T06:32:15;5.00;;;1.50;;
71914;SDS011;60387;49.994;14.660;2022-09-09T06:34:48;4.03;;;1.60;;
71914;SDS011;60387;49.994;14.660;2022-09-09T06:37:21;4.33;;;1.70;;
71914;SDS011;60387;49.994;14.660;2022-09-09T06:39:55;5.43;;;1.57;;
71914;SDS011;60387;49.994;14.660;2022-09-09T06:42:28;4.17;;;1.80;;
71914;SDS011;60387;49.994;14.660;2022-09-09T06:45:01;5.53;;;1.60;;
71914;SDS011;60387;49.994;14.660;2022-09-09T06:47:35;4.45;;;1.80;;
71914;SDS011;60387;49.994;14.660;2022-09-09T06:50:08;5.50;;;1.70;;
71914;SDS011;60387;49.994;14.660;2022-09-09T06:52:41;4.07;;;1.60;;
71914;SDS011;60387;49.994;14.660;2022-09-09T06:55:15;3.77;;;1.53;;
71914;SDS011;60387;49.994;14.660;2022-09-09T06:57:48;3.67;;;1.30;;
71914;SDS011;60387;49.994;14.660;2022-09-09T07:00:21;5.97;;;1.40;;
71914;SDS011;60387;49.994;14.660;2022-09-09T07:02:54;3.93;;;1.27;;
71914;SDS011;60387;49.994;14.660;2022-09-09T07:05:27;3.87;;;1.23;;
71914;SDS011;60387;49.994;14.660;2022-09-09T07:08:01;3.87;;;1.20;;
71914;SDS011;60387;49.994;14.660;2022-09-09T07:10:37;4.03;;;1.23;;
71914;SDS011;60387;49.994;14.660;2022-09-09T07:13:10;4.00;;;1.08;;
71914;SDS011;60387;49.994;14.660;2022-09-09T07:15:44;4.03;;;1.10;;
71914;SDS011;60387;49.994;14.660;2022-09-09T07:18:17;2.80;;;1.17;;
71914;SDS011;60387;49.994;14.660;2022-09-09T07:20:54;4.57;;;1.52;;
71914;SDS011;60387;49.994;14.660;2022-09-09T07:23:28;3.00;;;1.00;;
71914;SDS011;60387;49.994;14.660;2022-09-09T07:26:06;3.67;;;1.00;;
71914;SDS011;60387;49.994;14.660;2022-09-09T07:28:41;4.72;;;1.10;;
71914;SDS011;60387;49.994;14.660;2022-09-09T07:33:49;3.78;;;1.20;;
71914;SDS011;60387;49.994;14.660;2022-09-09T07:36:33;5.27;;;1.30;;
71914;SDS011;60387;49.994;14.660;2022-09-09T07:39:11;4.30;;;1.13;;
71914;SDS011;60387;49.994;14.660;2022-09-09T07:41:46;4.37;;;1.30;;
71914;SDS011;60387;49.994;14.660;2022-09-09T07:44:21;3.83;;;1.20;;
71914;SDS011;60387;49.994;14.660;2022-09-09T07:46:56;2.40;;;1.00;;
71914;SDS011;60387;49.994;14.660;2022-09-09T07:49:29;3.93;;;1.10;;
71914;SDS011;60387;49.994;14.660;2022-09-09T07:52:03;3.10;;;1.10;;
71914;SDS011;60387;49.994;14.660;2022-09-09T07:54:36;4.37;;;1.10;;
71914;SDS011;60387;49.994;14.660;2022-09-09T07:57:09;2.47;;;1.00;;
71914;SDS011;60387;49.994;14.660;2022-09-09T07:59:42;1.87;;;0.90;;
71914;SDS011;60387;49.994;14.660;2022-09-09T08:02:16;2.90;;;1.03;;
71914;SDS011;60387;49.994;14.660;2022-09-09T08:04:49;4.10;;;1.27;;
71914;SDS011;60387;49.994;14.660;2022-09-09T08:07:22;3.43;;;1.03;;
71914;SDS011;60387;49.994;14.660;2022-09-09T08:09:55;3.10;;;1.10;;
71914;SDS011;60387;49.994;14.660;2022-09-09T08:12:29;2.23;;;0.90;;
71914;SDS011;60387;49.994;14.660;2022-09-09T08:15:02;3.37;;;1.00;;
71914;SDS011;60387;49.994;14.660;2022-09-09T08:17:36;4.23;;;1.30;;
71914;SDS011;60387;49.994;14.660;2022-09-09T08:20:09;3.40;;;0.80;;
71914;SDS011;60387;49.994;14.660;2022-09-09T08:22:42;2.73;;;1.00;;
71914;SDS011;60387;49.994;14.660;2022-09-09T08:25:15;2.80;;;0.80;;
71914;SDS011;60387;49.994;14.660;2022-09-09T08:27:49;3.77;;;1.00;;
71914;SDS011;60387;49.994;14.660;2022-09-09T08:30:22;3.03;;;0.93;;
71914;SDS011;60387;49.994;14.660;2022-09-09T08:32:55;4.00;;;1.03;;
71914;SDS011;60387;49.994;14.660;2022-09-09T08:35:28;4.40;;;1.13;;
71914;SDS011;60387;49.994;14.660;2022-09-09T08:38:02;4.60;;;1.20;;
71914;SDS011;60387;49.994;14.660;2022-09-09T08:40:35;3.20;;;0.90;;
71914;SDS011;60387;49.994;14.660;2022-09-09T08:43:14;3.40;;;1.20;;
71914;SDS011;60387;49.994;14.660;2022-09-09T08:46:01;3.83;;;1.40;;
71914;SDS011;60387;49.994;14.660;2022-09-09T08:48:54;3.13;;;1.02;;
71914;SDS011;60387;49.994;14.660;2022-09-09T08:51:32;3.65;;;0.90;;
71914;SDS011;60387;49.994;14.660;2022-09-09T08:54:07;3.67;;;1.00;;
71914;SDS011;60387;49.994;14.660;2022-09-09T08:56:41;2.83;;;0.97;;
71914;SDS011;60387;49.994;14.660;2022-09-09T08:59:16;2.67;;;1.00;;
71914;SDS011;60387;49.994;14.660;2022-09-09T09:02:03;3.30;;;0.98;;
71914;SDS011;60387;49.994;14.660;2022-09-09T09:10:25;3.17;;;1.02;;
71914;SDS011;60387;49.994;14.660;2022-09-09T09:13:15;3.08;;;1.10;;
71914;SDS011;60387;49.994;14.660;2022-09-09T09:15:54;3.85;;;1.02;;
71914;SDS011;60387;49.994;14.660;2022-09-09T09:18:31;2.70;;;0.80;;
71914;SDS011;60387;49.994;14.660;2022-09-09T09:24:38;2.75;;;1.10;;
71914;SDS011;60387;49.994;14.660;2022-09-09T09:27:27;2.47;;;0.90;;
71914;SDS011;60387;49.994;14.660;2022-09-09T09:30:13;3.20;;;1.13;;
71914;SDS011;60387;49.994;14.660;2022-09-09T09:32:58;3.53;;;1.20;;
71914;SDS011;60387;49.994;14.660;2022-09-09T09:35:35;2.90;;;1.00;;
71914;SDS011;60387;49.994;14.660;2022-09-09T09:38:18;6.13;;;1.30;;
71914;SDS011;60387;49.994;14.660;2022-09-09T09:40:54;3.27;;;1.10;;
71914;SDS011;60387;49.994;14.660;2022-09-09T09:43:35;1.80;;;0.90;;
71914;SDS011;60387;49.994;14.660;2022-09-09T09:46:20;3.15;;;1.13;;
71914;SDS011;60387;49.994;14.660;2022-09-09T09:49:01;3.90;;;1.05;;
71914;SDS011;60387;49.994;14.660;2022-09-09T09:51:37;2.80;;;1.02;;
71914;SDS011;60387;49.994;14.660;2022-09-09T09:56:46;2.73;;;0.90;;
71914;SDS011;60387;49.994;14.660;2022-09-09T10:02:18;3.13;;;0.90;;
71914;SDS011;60387;49.994;14.660;2022-09-09T10:05:00;2.63;;;1.00;;
71914;SDS011;60387;49.994;14.660;2022-09-09T10:07:35;2.47;;;0.90;;
71914;SDS011;60387;49.994;14.660;2022-09-09T10:10:08;3.03;;;0.90;;
71914;SDS011;60387;49.994;14.660;2022-09-09T10:13:03;4.28;;;1.10;;
71914;SDS011;60387;49.994;14.660;2022-09-09T10:16:30;2.95;;;0.85;;
71914;SDS011;60387;49.994;14.660;2022-09-09T10:19:35;2.85;;;1.00;;
71914;SDS011;60387;49.994;14.660;2022-09-09T10:30:51;2.75;;;0.80;;
71914;SDS011;60387;49.994;14.660;2022-09-09T10:36:24;2.70;;;0.80;;
71914;SDS011;60387;49.994;14.660;2022-09-09T10:39:03;3.88;;;1.00;;
71914;SDS011;60387;49.994;14.660;2022-09-09T10:41:48;2.78;;;0.80;;
71914;SDS011;60387;49.994;14.660;2022-09-09T10:47:57;2.53;;;0.90;;
71914;SDS011;60387;49.994;14.660;2022-09-09T10:56:19;3.65;;;0.70;;
71914;SDS011;60387;49.994;14.660;2022-09-09T10:58:59;2.55;;;0.73;;
71914;SDS011;60387;49.994;14.660;2022-09-09T11:01:41;3.75;;;0.70;;
71914;SDS011;60387;49.994;14.660;2022-09-09T11:04:31;3.40;;;0.70;;
71914;SDS011;60387;49.994;14.660;2022-09-09T11:07:12;3.75;;;0.73;;
71914;SDS011;60387;49.994;14.660;2022-09-09T11:09:54;3.88;;;0.88;;
71914;SDS011;60387;49.994;14.660;2022-09-09T11:12:34;2.95;;;0.80;;
71914;SDS011;60387;49.994;14.660;2022-09-09T11:15:14;3.17;;;0.80;;
71914;SDS011;60387;49.994;14.660;2022-09-09T11:17:59;3.27;;;0.70;;
71914;SDS011;60387;49.994;14.660;2022-09-09T11:20:36;2.85;;;0.80;;
71914;SDS011;60387;49.994;14.660;2022-09-09T11:23:15;2.42;;;0.73;;
71914;SDS011;60387;49.994;14.660;2022-09-09T11:25:58;3.22;;;0.82;;
71914;SDS011;60387;49.994;14.660;2022-09-09T11:28:40;2.77;;;0.80;;
71914;SDS011;60387;49.994;14.660;2022-09-09T11:40:27;4.07;;;1.10;;
71914;SDS011;60387;49.994;14.660;2022-09-09T11:43:11;33.27;;;4.43;;
71914;SDS011;60387;49.994;14.660;2022-09-09T11:45:50;6.05;;;1.50;;
71914;SDS011;60387;49.994;14.660;2022-09-09T11:48:33;4.70;;;0.80;;
71914;SDS011;60387;49.994;14.660;2022-09-09T11:51:08;2.95;;;0.90;;
71914;SDS011;60387;49.994;14.660;2022-09-09T11:53:54;2.42;;;0.90;;
71914;SDS011;60387;49.994;14.660;2022-09-09T11:59:32;3.50;;;0.90;;
71914;SDS011;60387;49.994;14.660;2022-09-09T12:10:30;2.90;;;0.80;;
71914;SDS011;60387;49.994;14.660;2022-09-09T12:13:16;3.92;;;1.05;;
71914;SDS011;60387;49.994;14.660;2022-09-09T12:15:57;4.88;;;0.90;;
71914;SDS011;60387;49.994;14.660;2022-09-09T12:18:36;3.40;;;0.80;;
71914;SDS011;60387;49.994;14.660;2022-09-09T12:24:13;3.57;;;0.83;;
71914;SDS011;60387;49.994;14.660;2022-09-09T12:26:56;3.53;;;0.80;;
71914;SDS011;60387;49.994;14.660;2022-09-09T12:32:27;2.28;;;0.73;;
71914;SDS011;60387;49.994;14.660;2022-09-09T12:35:18;3.83;;;0.80;;
71914;SDS011;60387;49.994;14.660;2022-09-09T12:37:56;2.90;;;0.73;;
71914;SDS011;60387;49.994;14.660;2022-09-09T12:40:34;2.22;;;0.70;;
71914;SDS011;60387;49.994;14.660;2022-09-09T12:43:20;2.72;;;0.70;;
71914;SDS011;60387;49.994;14.660;2022-09-09T12:46:00;3.10;;;0.70;;
71914;SDS011;60387;49.994;14.660;2022-09-09T12:48:37;3.15;;;0.80;;
71914;SDS011;60387;49.994;14.660;2022-09-09T12:51:46;1.95;;;0.50;;
71914;SDS011;60387;49.994;14.660;2022-09-09T12:54:16;4.72;;;0.90;;
71914;SDS011;60387;49.994;14.660;2022-09-09T12:56:49;2.70;;;0.97;;
71914;SDS011;60387;49.994;14.660;2022-09-09T12:59:27;3.20;;;0.80;;
71914;SDS011;60387;49.994;14.660;2022-09-09T13:02:11;3.63;;;0.93;;
71914;SDS011;60387;49.994;14.660;2022-09-09T13:04:50;2.67;;;0.60;;
71914;SDS011;60387;49.994;14.660;2022-09-09T13:07:24;3.57;;;1.10;;
71914;SDS011;60387;49.994;14.660;2022-09-09T13:09:57;5.60;;;1.13;;
71914;SDS011;60387;49.994;14.660;2022-09-09T13:12:31;4.80;;;0.93;;
71914;SDS011;60387;49.994;14.660;2022-09-09T13:15:04;5.63;;;0.90;;
71914;SDS011;60387;49.994;14.660;2022-09-09T13:17:50;5.15;;;1.00;;
71914;SDS011;60387;49.994;14.660;2022-09-09T13:20:25;4.18;;;0.70;;
71914;SDS011;60387;49.994;14.660;2022-09-09T13:23:00;3.23;;;0.67;;
71914;SDS011;60387;49.994;14.660;2022-09-09T13:25:33;4.77;;;0.70;;
71914;SDS011;60387;49.994;14.660;2022-09-09T13:28:18;4.07;;;0.60;;
71914;SDS011;60387;49.994;14.660;2022-09-09T13:31:04;2.93;;;0.60;;
71914;SDS011;60387;49.994;14.660;2022-09-09T13:33:52;2.15;;;0.40;;
71914;SDS011;60387;49.994;14.660;2022-09-09T13:36:32;2.23;;;0.50;;
71914;SDS011;60387;49.994;14.660;2022-09-09T13:39:15;1.70;;;0.50;;
71914;SDS011;60387;49.994;14.660;2022-09-09T13:41:51;2.08;;;0.60;;
71914;SDS011;60387;49.994;14.660;2022-09-09T13:44:28;2.60;;;0.60;;
71914;SDS011;60387;49.994;14.660;2022-09-09T13:47:05;2.25;;;0.50;;
71914;SDS011;60387;49.994;14.660;2022-09-09T13:49:50;2.25;;;0.60;;
71914;SDS011;60387;49.994;14.660;2022-09-09T13:52:23;2.43;;;0.53;;
71914;SDS011;60387;49.994;14.660;2022-09-09T13:54:56;2.90;;;0.60;;
71914;SDS011;60387;49.994;14.660;2022-09-09T13:57:30;3.00;;;0.60;;
71914;SDS011;60387;49.994;14.660;2022-09-09T14:00:03;3.87;;;0.70;;
71914;SDS011;60387;49.994;14.660;2022-09-09T14:02:38;2.80;;;0.60;;
71914;SDS011;60387;49.994;14.660;2022-09-09T14:05:12;1.13;;;0.60;;
71914;SDS011;60387;49.994;14.660;2022-09-09T14:07:45;2.53;;;0.80;;
71914;SDS011;60387;49.994;14.660;2022-09-09T14:10:18;4.13;;;0.70;;
71914;SDS011;60387;49.994;14.660;2022-09-09T14:12:52;3.50;;;0.60;;
71914;SDS011;60387;49.994;14.660;2022-09-09T14:15:25;4.90;;;0.70;;
71914;SDS011;60387;49.994;14.660;2022-09-09T14:17:59;1.87;;;0.70;;
71914;SDS011;60387;49.994;14.660;2022-09-09T14:20:32;3.30;;;0.60;;
71914;SDS011;60387;49.994;14.660;2022-09-09T14:23:05;2.83;;;0.70;;
71914;SDS011;60387;49.994;14.660;2022-09-09T14:25:39;2.83;;;0.70;;
71914;SDS011;60387;49.994;14.660;2022-09-09T14:28:14;3.55;;;1.00;;
71914;SDS011;60387;49.994;14.660;2022-09-09T14:30:47;3.33;;;1.20;;
71914;SDS011;60387;49.994;14.660;2022-09-09T14:33:20;3.27;;;1.00;;
71914;SDS011;60387;49.994;14.660;2022-09-09T14:35:57;3.33;;;0.83;;
71914;SDS011;60387;49.994;14.660;2022-09-09T14:38:32;4.13;;;1.10;;
71914;SDS011;60387;49.994;14.660;2022-09-09T14:41:11;3.00;;;0.75;;
71914;SDS011;60387;49.994;14.660;2022-09-09T14:43:46;4.03;;;0.90;;
71914;SDS011;60387;49.994;14.660;2022-09-09T14:46:20;4.53;;;0.93;;
71914;SDS011;60387;49.994;14.660;2022-09-09T14:48:53;5.30;;;0.80;;
71914;SDS011;60387;49.994;14.660;2022-09-09T14:51:27;4.53;;;1.00;;
71914;SDS011;60387;49.994;14.660;2022-09-09T14:54:00;5.93;;;1.00;;
71914;SDS011;60387;49.994;14.660;2022-09-09T14:56:33;4.57;;;0.93;;
71914;SDS011;60387;49.994;14.660;2022-09-09T14:59:07;4.40;;;0.83;;
71914;SDS011;60387;49.994;14.660;2022-09-09T15:01:40;3.37;;;1.00;;
71914;SDS011;60387;49.994;14.660;2022-09-09T15:04:14;3.73;;;0.90;;
71914;SDS011;60387;49.994;14.660;2022-09-09T15:06:47;3.30;;;1.00;;
71914;SDS011;60387;49.994;14.660;2022-09-09T15:09:20;4.47;;;1.20;;
71914;SDS011;60387;49.994;14.660;2022-09-09T15:11:53;7.17;;;2.37;;
71914;SDS011;60387;49.994;14.660;2022-09-09T15:14:27;6.10;;;2.27;;
71914;SDS011;60387;49.994;14.660;2022-09-09T15:17:00;4.73;;;1.43;;
71914;SDS011;60387;49.994;14.660;2022-09-09T15:19:33;3.77;;;0.80;;
71914;SDS011;60387;49.994;14.660;2022-09-09T15:22:07;3.37;;;0.80;;
71914;SDS011;60387;49.994;14.660;2022-09-09T15:24:41;3.45;;;0.90;;
71914;SDS011;60387;49.994;14.660;2022-09-09T15:27:14;5.40;;;0.90;;
71914;SDS011;60387;49.994;14.660;2022-09-09T15:29:48;3.33;;;0.90;;
71914;SDS011;60387;49.994;14.660;2022-09-09T15:32:21;5.73;;;1.00;;
71914;SDS011;60387;49.994;14.660;2022-09-09T15:34:54;4.00;;;1.40;;
71914;SDS011;60387;49.994;14.660;2022-09-09T15:37:27;5.90;;;1.40;;
71914;SDS011;60387;49.994;14.660;2022-09-09T15:40:01;3.33;;;1.33;;
71914;SDS011;60387;49.994;14.660;2022-09-09T15:42:34;3.53;;;1.20;;
71914;SDS011;60387;49.994;14.660;2022-09-09T15:45:07;2.93;;;0.80;;
71914;SDS011;60387;49.994;14.660;2022-09-09T15:47:41;3.60;;;0.90;;
71914;SDS011;60387;49.994;14.660;2022-09-09T15:50:14;4.97;;;1.00;;
71914;SDS011;60387;49.994;14.660;2022-09-09T15:52:48;4.68;;;1.15;;
71914;SDS011;60387;49.994;14.660;2022-09-09T15:55:21;4.03;;;1.40;;
71914;SDS011;60387;49.994;14.660;2022-09-09T15:57:54;4.23;;;1.10;;
71914;SDS011;60387;49.994;14.660;2022-09-09T16:00:27;5.13;;;1.33;;
71914;SDS011;60387;49.994;14.660;2022-09-09T16:03:01;4.07;;;1.50;;
71914;SDS011;60387;49.994;14.660;2022-09-09T16:05:34;3.03;;;1.10;;
71914;SDS011;60387;49.994;14.660;2022-09-09T16:08:07;4.97;;;1.37;;
71914;SDS011;60387;49.994;14.660;2022-09-09T16:10:40;3.73;;;0.90;;
71914;SDS011;60387;49.994;14.660;2022-09-09T16:13:13;4.67;;;1.20;;
71914;SDS011;60387;49.994;14.660;2022-09-09T16:15:53;3.07;;;1.20;;
71914;SDS011;60387;49.994;14.660;2022-09-09T16:18:32;4.90;;;1.40;;
71914;SDS011;60387;49.994;14.660;2022-09-09T16:21:07;4.70;;;1.35;;
71914;SDS011;60387;49.994;14.660;2022-09-09T16:23:45;3.60;;;1.20;;
71914;SDS011;60387;49.994;14.660;2022-09-09T16:26:19;3.80;;;1.33;;
71914;SDS011;60387;49.994;14.660;2022-09-09T16:28:53;4.23;;;1.57;;
71914;SDS011;60387;49.994;14.660;2022-09-09T16:31:27;5.00;;;1.30;;
71914;SDS011;60387;49.994;14.660;2022-09-09T16:34:01;5.60;;;1.70;;
71914;SDS011;60387;49.994;14.660;2022-09-09T16:36:35;4.30;;;1.30;;
71914;SDS011;60387;49.994;14.660;2022-09-09T16:39:10;6.90;;;1.60;;
71914;SDS011;60387;49.994;14.660;2022-09-09T16:41:48;5.25;;;1.38;;
71914;SDS011;60387;49.994;14.660;2022-09-09T16:44:22;3.70;;;1.38;;
71914;SDS011;60387;49.994;14.660;2022-09-09T16:46:55;4.30;;;1.83;;
71914;SDS011;60387;49.994;14.660;2022-09-09T16:49:28;6.10;;;2.30;;
71914;SDS011;60387;49.994;14.660;2022-09-09T16:52:02;5.97;;;2.67;;
71914;SDS011;60387;49.994;14.660;2022-09-09T16:54:35;4.37;;;1.90;;
71914;SDS011;60387;49.994;14.660;2022-09-09T16:57:08;4.33;;;1.50;;
71914;SDS011;60387;49.994;14.660;2022-09-09T16:59:41;6.13;;;2.50;;
71914;SDS011;60387;49.994;14.660;2022-09-09T17:02:15;4.97;;;1.40;;
71914;SDS011;60387;49.994;14.660;2022-09-09T17:04:48;4.87;;;1.17;;
71914;SDS011;60387;49.994;14.660;2022-09-09T17:07:21;3.70;;;1.20;;
71914;SDS011;60387;49.994;14.660;2022-09-09T17:09:54;3.03;;;1.00;;
71914;SDS011;60387;49.994;14.660;2022-09-09T17:12:28;3.70;;;1.40;;
71914;SDS011;60387;49.994;14.660;2022-09-09T17:15:01;4.83;;;1.40;;